Decoded Metar for UKOH ( in ) (IATA:) | Meteo·Mobile Aviation Weather
aviador You're here:

UKOH Decoded Metar

in
Report Time2018-12-11 12:00:00
UTC Time2018-12-11 12:34:35
Flight Rules ifr IFR
Wind350° at 17 kt
W.Decomp.*RWY 03: 13.0 kt HW 10.9 kt LCW
W.Rank350° ranks 11
Current wind is above 350° avg. (9.4)
Visibility9999 m
Phenomena:N/A
Clouds:Overcast 006 Hf
Expected CloudBase > 400 ft AGL from Temp-Dew spread
Ceiling600 ft
Temp-1°C
Dew Point-2°C (93% RH)
AAT-9.4°C
QNH1006 hPa
Raw Report
METAR UKOH 111200Z 35009MPS 9999 OVC006 M01/M02 Q1006
R03/190060 NOSIG=

Extra information for UKOH:More info

Social comments